2 Giugno 2019 | Ceresara

Aviosuperficie di San Martino

Ceresara (MN)

L’evento

Dalle ore 10 al tramonto.

Aperto al pubblico, ingresso gratuito

Galleria foto courtesy di Pierangelo Gatto

Mudry CAP 10B

Questo splendido Mudry CAP 10B, costruito nel 1973 (esemplare n.41), da qualche anno risiede in Italia grazie all’amore del suo proprietario

2474total visits,2visits today

Bird Dog

Dopo parecchio tempo di fermo macchina questo bellissimo Cessna O-1 Bird Dog è tornato a volare

2474total visits,2visits today

Harvard e Texan

A dispetto del loro nome, alla base di entrambi c’è lo stesso progetto. Saranno tra gli ospiti della prossima edizione!

2474total visits,2visits today

Ultime News

Mudry CAP 10B

Questo splendido Mudry CAP 10B, costruito nel 1973 (esemplare n.41), da qualche anno risiede in Italia grazie all’amore del suo proprietario

Bird Dog

Dopo parecchio tempo di fermo macchina questo bellissimo Cessna O-1 Bird Dog è tornato a volare

Harvard e Texan

A dispetto del loro nome, alla base di entrambi c’è lo stesso progetto. Saranno tra gli ospiti della prossima edizione!

Ci sarai anche tu?

Segnalacelo sulla pagina Facebook dedicata al Museo Volante, così i tuoi amici sapranno che ci sarai (o che sei interessato) e noi potremo prepararci al meglio per accogliere tutti coloro che verranno!

L’evento è anche elencato su RunwayMap e Socialflight

All'evento mancano solo più...

Giorno(s)

:

Ore(s)

:

Minuto(i)

:

Second(s)

I velivoli della collezione Marchi – Sorlini

La collezione è stata iniziata dall’imprenditore bresciano Luciano Sorlini (1925-2015), ed è oggi mantenuta in ordine di volo dalla figlia Silvia e dal marito Giovanni Marchi.

I velivoli ospiti

Alcuni dei velivoli storici partecipanti alle passate edizioni, in gran parte dei Soci HAG (ma è solo un assaggio: ce ne saranno MOLTI altri!)

Comunicato stampa dell’evento

Per chi volesse stampare il volantino della manifestazione (e magari distribuirlo in giro…), eccolo qui:

Dicono di noi…

Alcuni articoli apparsi sulla stampa e sul web

Video dell’edizione 2017

(courtesy of Dee jay Dinero)

Video dell’edizione 2018

(courtesy of Frequency Brescia)

In collaborazione con

Con la partecipazione di

 

Historical Aircraft Group

Comune di Ceresara

Dove siamo

45° 15′  52″ N – 10° 31′ 54″ E

Via S. Martino 68 – Ceresara (MN)

 

Meteorologia aeronautica 

Aeroporto di Verona
VILLAFRANCA(CV/M
Metar
LIPX 182250Z 33006KT CAVOK 10/05 Q1028

22:50 UTC

Wind: 330° 6kt

Visibility:

Sky:

Temp: 10 deg C / 50 deg F

Dewpoint: 5 deg C / 41 deg F

Pressure: 1028 hPa

TAF
TAF LIPX 182000Z 1821/1906 04006KT CAVOK

Aeroporto di Brescia
BRESCIA/MONTICHI
Metar
LIPO 182250Z 03007KT CAVOK 12/06 Q1028

22:50 UTC

Wind: 30° 7kt

Visibility:

Sky:

Temp: 12 deg C / 53.6 deg F

Dewpoint: 6 deg C / 42.8 deg F

Pressure: 1028 hPa

TAF
TAF LIPO 181700Z 1818/1918 10006KT CAVOK

Aeroporto di Parma
PARMA
TAF
TAF LIMP 181700Z 1818/1918 VRB05KT CAVOK

Le domande più frequenti…

Contatti

Per saperne di più, scrivici!

13 + 2 =

Antispam: rispondere alla domanda prima di inviare il messaggio

Il copyright delle immagini e dei video di questo sito appartiene ai loro autori. Nonstante le ricerche, non sempre è stato possibile contattare l'autore per richiedere l'autorizzazione alla pubblicazione. I detentori del copyright delle immagini qui utilizzate possono contattarci per vedere riconosciuto il loro diritto di citazione, o, se preferiscono, farle rimuovere.

2474total visits,2visits today